Time;durP1;ratioP1;P1;durP2;ratioP2;P2;SDS_P1;SDS_P2;PMS_P1;PMS_P2;Temp;Humidity;BMP_temperature;BMP_pressure;BME280_temperature;BME280_humidity;BME280_pressure;Samples;Min_cycle;Max_cycle;Signal;HPM_P1;HPM_P2
2023/06/27 00:00:29;;;;;;;31.53;6.27;;;28.40;45.70;;;;;;5024612;28;20931;-67
2023/06/27 00:02:58;;;;;;;57.33;8.30;;;28.40;45.70;;;;;;5027267;28;20237;-64
2023/06/27 00:05:30;;;;;;;50.30;7.97;;;28.30;45.60;;;;;;5030633;28;20594;-65
2023/06/27 00:07:57;;;;;;;38.97;7.00;;;28.30;45.60;;;;;;5025070;28;20677;-66
2023/06/27 00:10:25;;;;;;;41.30;7.23;;;28.30;45.60;;;;;;5032967;28;20201;-64
2023/06/27 00:12:53;;;;;;;40.10;7.37;;;28.40;45.80;;;;;;5029747;28;20719;-65
2023/06/27 00:15:20;;;;;;;44.10;7.30;;;28.30;45.70;;;;;;5041699;28;20211;-65
2023/06/27 00:17:47;;;;;;;41.63;7.30;;;28.30;45.80;;;;;;5024045;28;20581;-64
2023/06/27 00:20:14;;;;;;;36.60;6.73;;;28.30;45.70;;;;;;5028344;28;20216;-66
2023/06/27 00:22:41;;;;;;;35.67;6.57;;;28.30;45.80;;;;;;5049162;28;20211;-64
2023/06/27 00:25:10;;;;;;;36.53;6.57;;;28.30;45.80;;;;;;5049946;28;20737;-67
2023/06/27 00:27:38;;;;;;;39.67;6.80;;;28.30;45.80;;;;;;5048603;28;20200;-64
2023/06/27 00:30:07;;;;;;;39.70;6.80;;;28.30;45.80;;;;;;5041892;28;20323;-65
2023/06/27 00:32:34;;;;;;;35.27;6.47;;;28.30;45.80;;;;;;5030093;28;20219;-65
2023/06/27 00:35:01;;;;;;;33.13;6.20;;;28.30;46.40;;;;;;5036693;28;20752;-68
2023/06/27 00:37:28;;;;;;;49.67;7.87;;;28.30;45.80;;;;;;5048424;28;20204;-64
2023/06/27 00:39:55;;;;;;;29.50;6.50;;;28.30;45.80;;;;;;5046868;28;20691;-64
2023/06/27 00:42:22;;;;;;;46.83;7.97;;;28.20;45.80;;;;;;5044893;28;20286;-67
2023/06/27 00:44:51;;;;;;;53.50;8.00;;;28.30;45.80;;;;;;5020662;28;20201;-71
2023/06/27 00:47:17;;;;;;;58.73;8.87;;;28.20;45.80;;;;;;5028237;28;20320;-64
2023/06/27 00:49:45;;;;;;;36.07;6.93;;;28.20;45.90;;;;;;5022620;28;20216;-65
2023/06/27 00:52:12;;;;;;;52.07;7.90;;;28.20;45.90;;;;;;5043142;28;20213;-64
2023/06/27 00:54:39;;;;;;;39.63;7.33;;;28.30;45.90;;;;;;5036945;28;20205;-64
2023/06/27 00:57:06;;;;;;;32.00;6.50;;;28.20;45.90;;;;;;5026770;28;20322;-67
2023/06/27 00:59:36;;;;;;;40.53;7.57;;;28.20;45.90;;;;;;5030970;28;20201;-64
2023/06/27 01:02:04;;;;;;;36.67;7.07;;;28.20;45.90;;;;;;5028951;28;20201;-65
2023/06/27 01:04:31;;;;;;;42.83;7.53;;;28.20;46.00;;;;;;5012945;28;20208;-64
2023/06/27 01:07:05;;;;;;;37.60;7.13;;;28.20;46.00;;;;;;5035834;28;20224;-68
2023/06/27 01:09:38;;;;;;;38.47;6.97;;;28.20;46.00;;;;;;5041752;28;20254;-64
2023/06/27 01:12:11;;;;;;;53.87;8.50;;;28.20;46.00;;;;;;5029212;28;20201;-70
2023/06/27 01:14:41;;;;;;;45.80;7.73;;;28.20;46.00;;;;;;5014962;28;20227;-70
2023/06/27 01:17:10;;;;;;;36.87;6.70;;;28.20;46.00;;;;;;5038424;28;20204;-68
2023/06/27 01:19:44;;;;;;;51.73;7.73;;;28.20;46.10;;;;;;5036158;28;20786;-64
2023/06/27 01:22:16;;;;;;;43.30;7.37;;;28.10;46.00;;;;;;5038255;28;20693;-64
2023/06/27 01:24:44;;;;;;;45.50;7.83;;;28.10;46.00;;;;;;5016372;28;20205;-64
2023/06/27 01:27:12;;;;;;;41.93;7.17;;;28.10;46.10;;;;;;5030522;28;20232;-64
2023/06/27 01:29:40;;;;;;;35.30;6.70;;;28.10;46.10;;;;;;5037553;28;20207;-64
2023/06/27 01:32:13;;;;;;;35.33;6.73;;;28.10;46.10;;;;;;5030675;28;20200;-65
2023/06/27 01:34:49;;;;;;;46.17;7.43;;;28.10;46.10;;;;;;5029349;28;20205;-66
2023/06/27 01:37:22;;;;;;;33.47;6.53;;;28.10;46.20;;;;;;5035414;28;20216;-64
2023/06/27 01:39:57;;;;;;;37.57;6.50;;;28.10;46.20;;;;;;5041097;28;20215;-64
2023/06/27 01:42:31;;;;;;;37.23;7.13;;;28.10;46.20;;;;;;5046270;28;20224;-64
2023/06/27 01:44:58;;;;;;;58.17;8.73;;;28.10;46.20;;;;;;5047770;28;20192;-66
2023/06/27 01:47:26;;;;;;;47.80;8.13;;;28.10;46.20;;;;;;5019603;28;20232;-64
2023/06/27 01:49:53;;;;;;;42.87;7.30;;;28.10;46.30;;;;;;5026503;28;20195;-69
2023/06/27 01:52:20;;;;;;;36.90;7.17;;;28.10;46.30;;;;;;5047288;28;20682;-64
2023/06/27 01:54:47;;;;;;;58.43;8.43;;;28.10;46.40;;;;;;5026404;28;20645;-71
2023/06/27 01:57:16;;;;;;;30.17;6.13;;;28.10;46.30;;;;;;5026450;28;20208;-70
2023/06/27 01:59:42;;;;;;;37.40;6.57;;;28.00;46.30;;;;;;5039511;28;20526;-64
2023/06/27 02:02:09;;;;;;;35.87;6.87;;;28.00;46.40;;;;;;5024362;28;20709;-69
2023/06/27 02:04:36;;;;;;;39.80;7.13;;;28.00;46.40;;;;;;5024668;28;20200;-68
2023/06/27 02:07:03;;;;;;;39.27;6.93;;;28.00;46.40;;;;;;5048194;28;20230;-64
2023/06/27 02:09:30;;;;;;;29.80;6.13;;;28.00;46.40;;;;;;5046372;28;20200;-64
2023/06/27 02:11:57;;;;;;;66.33;9.37;;;28.00;46.40;;;;;;5043637;28;20263;-64
2023/06/27 02:14:25;;;;;;;41.60;7.07;;;28.00;46.40;;;;;;5042466;28;20220;-64
2023/06/27 02:16:52;;;;;;;45.83;7.63;;;28.00;46.40;;;;;;5008234;28;20669;-69
2023/06/27 02:19:19;;;;;;;40.40;7.23;;;28.00;46.40;;;;;;5008424;28;20676;-75
2023/06/27 02:21:46;;;;;;;30.17;6.33;;;27.90;46.30;;;;;;5019345;28;20408;-65
2023/06/27 02:24:13;;;;;;;35.00;6.83;;;28.00;46.40;;;;;;5029042;28;20204;-69
2023/06/27 02:26:40;;;;;;;36.47;7.03;;;28.00;46.40;;;;;;5039684;28;20228;-75
2023/06/27 02:29:06;;;;;;;37.97;7.07;;;28.00;46.50;;;;;;5038292;28;20287;-65
2023/06/27 02:31:35;;;;;;;35.77;6.83;;;28.00;46.50;;;;;;5028413;28;20200;-69
2023/06/27 02:34:02;;;;;;;44.10;7.53;;;28.00;46.50;;;;;;5028286;28;20189;-67
2023/06/27 02:36:29;;;;;;;43.67;7.80;;;28.00;46.50;;;;;;5027223;28;20205;-71
2023/06/27 02:38:56;;;;;;;37.00;6.83;;;28.00;46.60;;;;;;5027384;28;20211;-67
2023/06/27 02:41:23;;;;;;;90.10;11.27;;;27.90;46.50;;;;;;5020087;28;20196;-65
2023/06/27 02:43:50;;;;;;;35.77;7.20;;;27.90;46.50;;;;;;5027299;28;20201;-65
2023/06/27 02:46:17;;;;;;;35.17;7.53;;;27.90;46.50;;;;;;5022548;28;20557;-67
2023/06/27 02:48:45;;;;;;;53.33;8.43;;;27.90;46.60;;;;;;5024712;28;20212;-72
2023/06/27 02:51:12;;;;;;;37.07;6.60;;;27.90;46.60;;;;;;5039740;28;20201;-65
2023/06/27 02:53:39;;;;;;;69.60;9.73;;;27.90;46.60;;;;;;5023345;28;20215;-76
2023/06/27 02:56:07;;;;;;;40.00;7.50;;;27.90;46.60;;;;;;5036374;28;20200;-72
2023/06/27 02:58:35;;;;;;;46.37;7.50;;;27.90;46.60;;;;;;5028069;28;20295;-71
2023/06/27 03:01:03;;;;;;;43.90;7.83;;;27.90;46.60;;;;;;5027687;28;20206;-66
2023/06/27 03:03:30;;;;;;;41.30;7.53;;;27.90;46.60;;;;;;5034843;28;20249;-68
2023/06/27 03:06:02;;;;;;;73.20;10.60;;;27.90;46.70;;;;;;5041851;28;20871;-68
2023/06/27 03:08:29;;;;;;;38.60;7.27;;;27.90;46.70;;;;;;5013287;28;20626;-72
2023/06/27 03:10:56;;;;;;;55.10;8.13;;;27.90;46.70;;;;;;5040936;28;20200;-71
2023/06/27 03:13:24;;;;;;;38.20;7.13;;;27.80;46.70;;;;;;5027197;28;20282;-67
2023/06/27 03:15:50;;;;;;;40.00;7.23;;;27.90;46.70;;;;;;5034491;28;20206;-65
2023/06/27 03:18:17;;;;;;;42.23;7.90;;;27.90;46.70;;;;;;5033344;28;20207;-64
2023/06/27 03:20:44;;;;;;;32.47;6.47;;;27.90;46.80;;;;;;5030994;28;20200;-64
2023/06/27 03:23:12;;;;;;;44.17;7.63;;;27.80;46.70;;;;;;5026659;28;20725;-64
2023/06/27 03:25:39;;;;;;;42.53;7.43;;;27.90;46.80;;;;;;5024148;28;20227;-65
2023/06/27 03:28:06;;;;;;;39.37;7.30;;;27.80;46.70;;;;;;5020156;28;20229;-64
2023/06/27 03:30:33;;;;;;;35.83;6.93;;;27.80;46.70;;;;;;5007600;28;20217;-64
2023/06/27 03:33:00;;;;;;;37.20;6.87;;;27.80;46.70;;;;;;5008074;28;20300;-64
2023/06/27 03:35:26;;;;;;;65.23;9.10;;;27.80;46.80;;;;;;5013292;28;20204;-65
2023/06/27 03:37:54;;;;;;;56.23;8.27;;;27.80;46.90;;;;;;5027693;28;20200;-64
2023/06/27 03:40:22;;;;;;;66.57;9.37;;;27.80;46.90;;;;;;5026340;28;20201;-65
2023/06/27 03:42:49;;;;;;;36.93;6.93;;;27.80;46.90;;;;;;5033975;28;20207;-70
2023/06/27 03:45:16;;;;;;;45.87;7.37;;;27.80;46.90;;;;;;5041536;28;20202;-75
2023/06/27 03:47:43;;;;;;;46.43;7.87;;;27.80;46.90;;;;;;5034445;28;20217;-70
2023/06/27 03:50:10;;;;;;;42.93;7.23;;;27.70;46.80;;;;;;5014078;28;20679;-70
2023/06/27 03:52:38;;;;;;;35.97;6.70;;;27.80;46.90;;;;;;5043747;28;20200;-75
2023/06/27 03:55:05;;;;;;;45.10;7.60;;;27.70;46.80;;;;;;5037175;28;20300;-70
2023/06/27 03:57:34;;;;;;;39.00;7.13;;;27.70;46.90;;;;;;5034665;28;20204;-67
2023/06/27 04:00:00;;;;;;;39.07;7.03;;;27.70;46.80;;;;;;5035755;28;20200;-77
2023/06/27 04:02:28;;;;;;;50.23;7.90;;;27.70;46.90;;;;;;5033166;28;20208;-68
2023/06/27 04:04:55;;;;;;;34.87;6.60;;;27.70;46.80;;;;;;5022464;28;20202;-75
2023/06/27 04:07:21;;;;;;;44.13;7.63;;;27.70;46.80;;;;;;5029688;28;20228;-72
2023/06/27 04:09:48;;;;;;;37.07;6.83;;;27.70;46.90;;;;;;5030245;28;20197;-66
2023/06/27 04:12:15;;;;;;;34.97;6.73;;;27.70;46.90;;;;;;5030118;28;20215;-65
2023/06/27 04:14:43;;;;;;;47.87;7.93;;;27.70;46.90;;;;;;5046912;28;20224;-67
2023/06/27 04:17:10;;;;;;;43.00;7.13;;;27.70;46.90;;;;;;5049021;28;20218;-64
2023/06/27 04:19:37;;;;;;;40.37;7.60;;;27.70;47.00;;;;;;5041720;28;20211;-64
2023/06/27 04:22:04;;;;;;;44.87;8.00;;;27.60;46.90;;;;;;5050725;28;20196;-64
2023/06/27 04:24:31;;;;;;;48.33;8.03;;;27.60;47.00;;;;;;5044460;28;20204;-68
2023/06/27 04:26:58;;;;;;;37.70;7.10;;;27.60;47.00;;;;;;5048134;28;20696;-65
2023/06/27 04:29:25;;;;;;;36.53;6.80;;;27.60;47.00;;;;;;5037085;28;20215;-66
2023/06/27 04:31:55;;;;;;;40.37;7.00;;;27.60;47.00;;;;;;5034022;28;20652;-65
2023/06/27 04:34:22;;;;;;;39.43;7.03;;;27.60;47.00;;;;;;5044588;28;20204;-70
2023/06/27 04:36:51;;;;;;;38.03;7.13;;;27.60;47.00;;;;;;5049587;28;20219;-64
2023/06/27 04:39:17;;;;;;;57.80;8.67;;;27.60;47.00;;;;;;5041209;28;20212;-68
2023/06/27 04:41:44;;;;;;;38.37;7.13;;;27.60;47.00;;;;;;5020042;28;20686;-66
2023/06/27 04:44:11;;;;;;;36.83;6.90;;;27.50;47.00;;;;;;5024781;28;20208;-68
2023/06/27 04:46:38;;;;;;;35.28;6.97;;;27.60;47.10;;;;;;5031562;28;20946;-75
2023/06/27 04:49:06;;;;;;;50.13;8.23;;;27.50;47.30;;;;;;5043631;28;20208;-67
2023/06/27 04:51:33;;;;;;;38.57;6.80;;;27.50;47.30;;;;;;5029055;28;20228;-64
2023/06/27 04:54:00;;;;;;;50.77;8.67;;;27.50;47.40;;;;;;5031415;28;20212;-68
2023/06/27 04:56:27;;;;;;;57.50;9.00;;;27.50;47.30;;;;;;5032722;28;20786;-68
2023/06/27 04:58:54;;;;;;;63.73;9.67;;;27.50;47.30;;;;;;5027862;28;20204;-65
2023/06/27 05:01:21;;;;;;;38.90;7.63;;;27.50;47.30;;;;;;5025682;28;20197;-65
2023/06/27 05:03:48;;;;;;;31.93;6.97;;;27.50;47.40;;;;;;5029310;28;20208;-67
2023/06/27 05:06:16;;;;;;;42.30;9.47;;;27.50;47.50;;;;;;5021689;28;20202;-64
2023/06/27 05:08:44;;;;;;;40.03;8.33;;;27.50;47.60;;;;;;5011814;28;20240;-64
2023/06/27 05:11:10;;;;;;;32.47;7.00;;;27.40;47.60;;;;;;5031258;28;20204;-63
2023/06/27 05:13:37;;;;;;;47.27;8.50;;;27.40;47.60;;;;;;5041866;28;20220;-63
2023/06/27 05:16:04;;;;;;;31.50;7.23;;;27.40;47.60;;;;;;5028730;28;20662;-70
2023/06/27 05:18:31;;;;;;;37.60;7.43;;;27.40;47.60;;;;;;5021347;28;20208;-64
2023/06/27 05:20:58;;;;;;;66.50;9.70;;;27.30;47.50;;;;;;5013340;28;20205;-69
2023/06/27 05:23:26;;;;;;;29.13;6.77;;;27.30;47.60;;;;;;5039220;28;20216;-69
2023/06/27 05:25:53;;;;;;;41.47;8.07;;;27.30;47.50;;;;;;5027466;28;20735;-75
2023/06/27 05:28:20;;;;;;;26.07;6.37;;;27.30;47.60;;;;;;5035522;28;20217;-64
2023/06/27 05:30:47;;;;;;;43.43;8.03;;;27.30;47.80;;;;;;5010888;28;20202;-71
2023/06/27 05:33:14;;;;;;;34.50;7.30;;;27.30;48.60;;;;;;5020262;28;20206;-64
2023/06/27 05:35:40;;;;;;;50.30;8.17;;;27.30;48.10;;;;;;5017144;28;20218;-64
2023/06/27 05:38:07;;;;;;;33.90;7.00;;;27.20;48.00;;;;;;5023555;28;20201;-70
2023/06/27 05:40:36;;;;;;;45.77;8.60;;;27.20;48.00;;;;;;5015536;28;20209;-66
2023/06/27 05:43:03;;;;;;;40.37;7.90;;;27.20;48.10;;;;;;5013398;28;20197;-77
2023/06/27 05:45:30;;;;;;;30.60;7.03;;;27.20;48.20;;;;;;5009117;28;20205;-64
2023/06/27 05:47:56;;;;;;;51.10;8.87;;;27.10;48.00;;;;;;5020637;28;20213;-64
2023/06/27 05:50:23;;;;;;;39.87;7.63;;;27.20;48.10;;;;;;5025872;28;20304;-74
2023/06/27 05:52:50;;;;;;;34.80;6.97;;;27.10;48.10;;;;;;5018531;28;20206;-70
2023/06/27 05:55:17;;;;;;;32.23;7.20;;;27.10;48.30;;;;;;5016922;28;20197;-64
2023/06/27 05:57:45;;;;;;;34.50;7.07;;;27.10;48.50;;;;;;5023700;28;20207;-66
2023/06/27 06:00:14;;;;;;;42.90;7.80;;;27.10;48.60;;;;;;5026920;28;20208;-66
2023/06/27 06:02:43;;;;;;;25.37;5.97;;;27.10;48.40;;;;;;5020479;28;20774;-65
2023/06/27 06:05:11;;;;;;;32.20;6.53;;;27.10;48.50;;;;;;5024409;28;20211;-66
2023/06/27 06:07:42;;;;;;;33.70;7.00;;;27.10;48.60;;;;;;5034777;28;20311;-67
2023/06/27 06:10:09;;;;;;;35.13;6.73;;;27.10;48.90;;;;;;5033341;28;20731;-69
2023/06/27 06:12:37;;;;;;;42.67;7.90;;;27.10;48.90;;;;;;5024676;28;20753;-66
2023/06/27 06:15:06;;;;;;;40.47;7.67;;;27.00;48.90;;;;;;5032021;28;20206;-67
2023/06/27 06:17:33;;;;;;;48.10;7.63;;;27.00;49.10;;;;;;5007188;28;21005;-74
2023/06/27 06:20:00;;;;;;;73.37;9.67;;;27.00;48.90;;;;;;5016797;28;20202;-69
2023/06/27 06:22:27;;;;;;;28.43;6.67;;;27.00;49.10;;;;;;5032276;28;20207;-66
2023/06/27 06:24:54;;;;;;;32.77;7.00;;;27.00;48.90;;;;;;5038952;28;20206;-75
2023/06/27 06:27:21;;;;;;;34.63;7.33;;;26.90;49.00;;;;;;5047931;28;20668;-76
2023/06/27 06:29:47;;;;;;;32.30;6.57;;;26.90;49.10;;;;;;5035505;28;20207;-69
2023/06/27 06:32:16;;;;;;;52.23;8.57;;;26.90;49.20;;;;;;5028112;28;20196;-75
2023/06/27 06:34:43;;;;;;;52.70;8.53;;;26.90;49.30;;;;;;5040913;28;20216;-70
2023/06/27 06:37:09;;;;;;;34.47;7.00;;;26.90;49.40;;;;;;5046663;28;20208;-76
2023/06/27 06:39:36;;;;;;;31.30;6.90;;;26.80;49.40;;;;;;5039669;28;20197;-72
2023/06/27 06:42:04;;;;;;;39.67;7.60;;;26.80;49.50;;;;;;5026804;28;21022;-75
2023/06/27 06:44:30;;;;;;;36.40;7.57;;;26.80;49.60;;;;;;5026136;28;20231;-70
2023/06/27 06:46:57;;;;;;;55.27;9.00;;;26.80;49.70;;;;;;5025759;28;20213;-71
2023/06/27 06:49:26;;;;;;;59.27;9.00;;;26.70;49.70;;;;;;5007327;28;20208;-78
2023/06/27 06:51:53;;;;;;;31.10;6.80;;;26.70;49.90;;;;;;5020559;28;20203;-65
2023/06/27 06:54:19;;;;;;;37.73;7.53;;;26.70;50.00;;;;;;5042270;28;20212;-66
2023/06/27 06:56:48;;;;;;;35.90;6.63;;;26.70;49.90;;;;;;5045744;28;20656;-69
2023/06/27 06:59:15;;;;;;;37.60;7.60;;;26.70;49.80;;;;;;5013502;28;20228;-66
2023/06/27 07:01:42;;;;;;;36.90;6.90;;;26.60;49.60;;;;;;5011519;28;20194;-62
2023/06/27 07:04:09;;;;;;;28.97;6.27;;;26.60;49.70;;;;;;5024387;28;20201;-63
2023/06/27 07:06:37;;;;;;;46.80;7.57;;;26.60;49.90;;;;;;5021867;28;20259;-62
2023/06/27 07:09:04;;;;;;;42.03;7.47;;;26.60;50.00;;;;;;5011786;28;20229;-72
2023/06/27 07:11:31;;;;;;;57.07;8.77;;;26.60;49.90;;;;;;5009858;28;20679;-64
2023/06/27 07:13:59;;;;;;;71.07;9.67;;;26.60;49.90;;;;;;5009900;28;20701;-66
2023/06/27 07:16:26;;;;;;;52.63;7.90;;;26.60;50.10;;;;;;5023999;28;20193;-65
2023/06/27 07:18:53;;;;;;;37.77;7.07;;;26.60;50.00;;;;;;5017625;28;20198;-61
2023/06/27 07:21:20;;;;;;;40.13;7.37;;;26.60;49.80;;;;;;5037239;28;20253;-63
2023/06/27 07:23:49;;;;;;;50.77;7.80;;;26.60;49.80;;;;;;5028136;28;20201;-61
2023/06/27 07:26:16;;;;;;;31.53;6.53;;;26.60;49.80;;;;;;5014467;28;20578;-67
2023/06/27 07:28:43;;;;;;;33.97;6.57;;;26.60;49.80;;;;;;5010068;28;20233;-62
2023/06/27 07:31:09;;;;;;;30.20;6.43;;;26.60;49.80;;;;;;5033152;28;20215;-62
2023/06/27 07:33:36;;;;;;;38.10;6.63;;;26.60;49.80;;;;;;5015450;28;20517;-62
2023/06/27 07:36:03;;;;;;;34.87;6.53;;;26.60;49.70;;;;;;5021169;28;20681;-61
2023/06/27 07:38:31;;;;;;;38.60;6.90;;;26.70;49.80;;;;;;5028875;28;20966;-61
2023/06/27 07:40:59;;;;;;;31.53;6.30;;;26.70;49.70;;;;;;5015205;28;20201;-62
2023/06/27 07:43:26;;;;;;;28.07;5.97;;;26.70;49.60;;;;;;5011920;28;20201;-65
2023/06/27 07:45:53;;;;;;;41.10;6.70;;;26.70;49.60;;;;;;5023597;28;20194;-65
2023/06/27 07:48:19;;;;;;;41.47;7.07;;;26.70;49.50;;;;;;5030204;28;20232;-64
2023/06/27 07:50:46;;;;;;;31.73;6.80;;;26.70;49.50;;;;;;5028899;28;20206;-60
2023/06/27 07:53:13;;;;;;;43.03;7.17;;;26.70;49.50;;;;;;5050872;28;20222;-60
2023/06/27 07:55:40;;;;;;;48.80;7.83;;;26.80;49.50;;;;;;5014685;28;20205;-61
2023/06/27 07:58:09;;;;;;;27.13;5.63;;;26.80;49.20;;;;;;5029729;28;20300;-67
2023/06/27 08:00:36;;;;;;;35.70;6.67;;;26.80;49.20;;;;;;5031162;28;20517;-61
2023/06/27 08:03:03;;;;;;;30.77;5.63;;;26.80;49.20;;;;;;5011353;28;20216;-61
2023/06/27 08:05:34;;;;;;;30.87;6.53;;;26.90;49.20;;;;;;5015548;28;20264;-61
2023/06/27 08:08:01;;;;;;;31.20;5.93;;;26.90;49.20;;;;;;5030864;28;20236;-62
2023/06/27 08:10:28;;;;;;;27.93;5.33;;;26.90;49.10;;;;;;5021978;28;20197;-62
2023/06/27 08:12:55;;;;;;;30.27;5.97;;;26.90;48.80;;;;;;5039288;28;20228;-65
2023/06/27 08:15:23;;;;;;;29.63;6.30;;;26.90;48.60;;;;;;5051012;28;20608;-67
2023/06/27 08:17:50;;;;;;;78.93;9.97;;;26.90;48.60;;;;;;5047017;28;20295;-63
2023/06/27 08:20:18;;;;;;;28.10;5.77;;;26.90;48.70;;;;;;5030561;28;20203;-62
2023/06/27 08:22:45;;;;;;;24.90;5.30;;;26.90;48.70;;;;;;5028828;28;20212;-65
2023/06/27 08:25:12;;;;;;;31.47;6.13;;;26.90;48.80;;;;;;5027986;28;20205;-69
2023/06/27 08:27:39;;;;;;;49.43;7.33;;;26.90;48.80;;;;;;5015836;28;20206;-66
2023/06/27 08:30:08;;;;;;;29.93;5.57;;;26.90;48.80;;;;;;5045397;28;20196;-64
2023/06/27 08:32:36;;;;;;;29.70;5.67;;;27.00;48.90;;;;;;5024520;28;20213;-64
2023/06/27 08:35:05;;;;;;;30.27;5.43;;;27.00;48.90;;;;;;5011524;28;20201;-65
2023/06/27 08:37:32;;;;;;;31.83;6.00;;;27.00;49.10;;;;;;5030323;28;20712;-66
2023/06/27 08:40:00;;;;;;;37.87;6.23;;;27.00;48.60;;;;;;5048193;28;20331;-64
2023/06/27 08:42:31;;;;;;;29.23;5.53;;;27.00;48.60;;;;;;5022238;28;20209;-67
2023/06/27 08:44:58;;;;;;;58.97;8.63;;;27.00;48.50;;;;;;5032472;28;20291;-65
2023/06/27 08:47:27;;;;;;;29.97;5.50;;;27.00;48.50;;;;;;5043957;28;20204;-65
2023/06/27 08:50:03;;;;;;;36.30;6.17;;;27.10;48.30;;;;;;5046738;28;20246;-65
2023/06/27 08:52:33;;;;;;;29.63;5.60;;;27.10;48.20;;;;;;5023480;28;20205;-66
2023/06/27 08:55:00;;;;;;;56.63;7.83;;;27.10;48.40;;;;;;5029213;28;20208;-66
2023/06/27 08:57:31;;;;;;;40.97;6.87;;;27.10;48.30;;;;;;5026562;28;20205;-65
2023/06/27 09:00:04;;;;;;;32.93;6.43;;;27.10;48.20;;;;;;5009586;28;20210;-68
2023/06/27 09:02:32;;;;;;;30.57;5.63;;;27.10;48.10;;;;;;5012379;28;20205;-71
2023/06/27 09:05:00;;;;;;;30.13;5.80;;;27.10;48.20;;;;;;5016922;28;20543;-72
2023/06/27 09:07:27;;;;;;;42.90;7.27;;;27.20;48.20;;;;;;5019900;28;20198;-66
2023/06/27 09:09:56;;;;;;;28.27;5.83;;;27.20;48.20;;;;;;5018984;28;20230;-75
2023/06/27 09:12:25;;;;;;;26.67;5.63;;;27.20;48.20;;;;;;5041901;28;20204;-77
2023/06/27 09:14:52;;;;;;;31.67;6.17;;;27.20;48.20;;;;;;5029463;28;20631;-68
2023/06/27 09:17:19;;;;;;;29.00;5.93;;;27.20;48.10;;;;;;5041667;28;20204;-68
2023/06/27 09:19:45;;;;;;;27.63;5.77;;;27.20;47.90;;;;;;5038999;28;20200;-75
2023/06/27 09:22:15;;;;;;;39.47;6.47;;;27.20;47.90;;;;;;5047361;28;20215;-72
2023/06/27 09:24:42;;;;;;;30.70;5.90;;;27.20;47.80;;;;;;5009820;28;20233;-74
2023/06/27 09:27:29;;;;;;;27.27;5.47;;;27.20;47.80;;;;;;5031035;28;20787;-79
2023/06/27 09:30:00;;;;;;;34.90;6.30;;;27.20;47.60;;;;;;5048980;28;20412;-76
2023/06/27 09:32:26;;;;;;;39.03;6.43;;;27.20;47.70;;;;;;5040020;28;20201;-63
2023/06/27 09:34:53;;;;;;;31.80;5.73;;;27.20;47.80;;;;;;5027882;28;20196;-73
2023/06/27 09:37:28;;;;;;;34.73;6.00;;;27.20;47.90;;;;;;5024834;28;20224;-73
2023/06/27 09:39:55;;;;;;;40.97;7.00;;;27.20;48.00;;;;;;5010183;28;20212;-71
2023/06/27 09:42:22;;;;;;;27.27;5.67;;;27.20;48.00;;;;;;5033828;28;20228;-71
2023/06/27 09:44:49;;;;;;;26.30;5.60;;;27.20;48.10;;;;;;5013261;28;20198;-66
2023/06/27 09:47:16;;;;;;;40.67;7.07;;;27.20;48.10;;;;;;5015080;28;20209;-66
2023/06/27 09:49:43;;;;;;;30.50;6.53;;;27.20;48.10;;;;;;5014261;28;20228;-65
2023/06/27 09:52:11;;;;;;;33.17;6.20;;;27.20;48.10;;;;;;5016990;28;20220;-67
2023/06/27 09:54:46;;;;;;;28.67;5.93;;;27.20;47.90;;;;;;5019642;28;20700;-69
2023/06/27 09:57:16;;;;;;;51.17;7.67;;;27.30;48.00;;;;;;5019957;28;20207;-68
2023/06/27 09:59:43;;;;;;;31.80;6.30;;;27.30;48.10;;;;;;5013923;28;20205;-71
2023/06/27 10:02:14;;;;;;;40.93;7.20;;;27.20;48.10;;;;;;5025688;28;20197;-71
2023/06/27 10:04:40;;;;;;;25.90;5.47;;;27.30;48.10;;;;;;5035784;28;20198;-66
2023/06/27 10:07:09;;;;;;;31.67;5.90;;;27.30;48.00;;;;;;5012167;28;20819;-65
2023/06/27 10:09:38;;;;;;;40.30;7.10;;;27.40;47.60;;;;;;5020350;28;20224;-65
2023/06/27 10:12:08;;;;;;;35.73;6.90;;;27.30;47.50;;;;;;5011196;28;20236;-65
2023/06/27 10:14:35;;;;;;;41.23;7.10;;;27.30;47.60;;;;;;5037230;28;20227;-65
2023/06/27 10:17:03;;;;;;;31.00;6.47;;;27.40;47.50;;;;;;5037660;28;20666;-65
2023/06/27 10:19:34;;;;;;;48.10;7.33;;;27.40;47.50;;;;;;5028648;28;20196;-65
2023/06/27 10:22:02;;;;;;;35.60;6.40;;;27.30;47.50;;;;;;5030163;28;20200;-66
2023/06/27 10:24:30;;;;;;;23.93;5.03;;;27.30;47.50;;;;;;5040842;28;20193;-65
2023/06/27 10:26:57;;;;;;;30.07;5.90;;;27.30;47.70;;;;;;5026509;28;20586;-64
2023/06/27 10:29:31;;;;;;;36.90;6.77;;;27.30;47.90;;;;;;5025187;28;20237;-65
2023/06/27 10:31:59;;;;;;;29.67;6.07;;;27.30;48.00;;;;;;5030054;28;20201;-65
2023/06/27 10:34:28;;;;;;;29.77;5.73;;;27.40;48.20;;;;;;5040205;28;20196;-65
2023/06/27 10:36:59;;;;;;;35.20;6.17;;;27.40;48.90;;;;;;5023323;28;20496;-66
2023/06/27 10:39:29;;;;;;;54.53;7.90;;;27.40;48.50;;;;;;5036457;28;20564;-66
2023/06/27 10:42:01;;;;;;;28.93;5.57;;;27.40;48.40;;;;;;5044119;28;20202;-66
2023/06/27 10:44:31;;;;;;;38.70;6.77;;;27.50;48.50;;;;;;5030462;28;20211;-66
2023/06/27 10:47:27;;;;;;;32.37;6.27;;;27.60;48.50;;;;;;5028326;28;20193;-65
2023/06/27 10:50:01;;;;;;;47.20;7.23;;;27.60;48.40;;;;;;5029035;28;20719;-65
2023/06/27 10:52:27;;;;;;;30.63;5.70;;;27.70;48.40;;;;;;5046879;28;20680;-68
2023/06/27 10:55:24;;;;;;;23.83;5.13;;;27.80;48.40;;;;;;5047798;28;20204;-67
2023/06/27 10:57:57;;;;;;;28.73;5.37;;;27.80;48.40;;;;;;5041114;28;20299;-65
2023/06/27 11:00:28;;;;;;;33.30;6.23;;;27.80;48.30;;;;;;5044527;28;20570;-68
2023/06/27 11:02:57;;;;;;;34.63;6.07;;;27.80;48.30;;;;;;5042159;28;20231;-66
2023/06/27 11:05:44;;;;;;;32.27;5.43;;;27.90;48.30;;;;;;5045968;28;20200;-67
2023/06/27 11:08:14;;;;;;;27.73;5.70;;;27.90;48.30;;;;;;5044938;28;20219;-66
2023/06/27 11:10:51;;;;;;;26.57;5.30;;;27.90;48.30;;;;;;5047449;28;20771;-66
2023/06/27 11:13:22;;;;;;;23.83;5.37;;;28.00;48.30;;;;;;5047944;28;20269;-66
2023/06/27 11:15:51;;;;;;;30.83;5.87;;;28.00;48.20;;;;;;5044312;28;20192;-67
2023/06/27 11:18:20;;;;;;;30.43;5.60;;;28.00;48.20;;;;;;5048240;28;20188;-66
2023/06/27 11:20:47;;;;;;;22.73;4.80;;;28.00;48.20;;;;;;5047648;28;20200;-68
2023/06/27 11:23:15;;;;;;;28.20;5.37;;;28.00;48.20;;;;;;5048292;28;20192;-67
2023/06/27 11:25:43;;;;;;;23.70;5.80;;;28.00;48.30;;;;;;5034741;28;20208;-65
2023/06/27 11:28:10;;;;;;;22.73;4.87;;;28.00;48.20;;;;;;5048038;28;20195;-67
2023/06/27 11:30:37;;;;;;;22.40;5.23;;;28.10;48.20;;;;;;5048304;28;20220;-66
2023/06/27 11:33:06;;;;;;;24.97;5.00;;;28.10;48.20;;;;;;5048002;28;20852;-65
2023/06/27 11:35:33;;;;;;;31.33;5.70;;;28.10;48.20;;;;;;5046394;28;20211;-65
2023/06/27 11:38:00;;;;;;;25.50;5.17;;;28.10;48.20;;;;;;5047658;28;20208;-68
2023/06/27 11:40:30;;;;;;;28.57;5.80;;;28.20;48.30;;;;;;5047158;28;20953;-66
2023/06/27 11:43:02;;;;;;;32.57;5.57;;;28.20;48.30;;;;;;5047693;28;20192;-70
2023/06/27 11:45:30;;;;;;;28.30;5.37;;;28.20;48.30;;;;;;5036421;28;20660;-65
2023/06/27 11:47:58;;;;;;;23.47;5.27;;;28.20;48.30;;;;;;5047940;28;20195;-67
2023/06/27 11:50:26;;;;;;;29.00;5.47;;;28.20;48.20;;;;;;5047443;28;20235;-67
2023/06/27 11:52:56;;;;;;;28.93;5.57;;;28.20;48.20;;;;;;5047740;28;20199;-67
2023/06/27 11:55:23;;;;;;;39.42;6.55;;;28.30;48.30;;;;;;5034898;28;20456;-65
2023/06/27 11:57:54;;;;;;;33.80;5.80;;;28.20;48.40;;;;;;5017862;28;20193;-65
2023/06/27 12:00:23;;;;;;;21.37;4.77;;;28.30;48.60;;;;;;5008208;28;20193;-65
2023/06/27 12:02:52;;;;;;;24.43;4.73;;;28.30;48.60;;;;;;5013577;28;20200;-66
2023/06/27 12:05:20;;;;;;;39.67;6.50;;;28.30;48.80;;;;;;5024281;28;20205;-67
2023/06/27 12:08:01;;;;;;;33.23;5.93;;;28.40;49.00;;;;;;5039477;28;20209;-69
2023/06/27 12:10:29;;;;;;;31.93;5.73;;;28.50;48.70;;;;;;5048507;28;20224;-70
2023/06/27 12:12:56;;;;;;;29.80;6.20;;;28.60;48.50;;;;;;5031419;28;20233;-67
2023/06/27 12:15:23;;;;;;;31.90;5.97;;;28.70;48.40;;;;;;5016673;28;20236;-68
2023/06/27 12:18:00;;;;;;;31.83;5.73;;;28.90;48.50;;;;;;5030873;28;20677;-68
2023/06/27 12:20:28;;;;;;;24.13;5.20;;;29.00;48.20;;;;;;5027142;28;20206;-67
2023/06/27 12:22:55;;;;;;;23.53;5.17;;;29.10;48.20;;;;;;5028501;28;20210;-67
2023/06/27 12:25:23;;;;;;;27.17;5.23;;;29.30;48.00;;;;;;5047688;28;20204;-66
2023/06/27 12:27:50;;;;;;;30.93;5.73;;;29.40;47.90;;;;;;5028443;28;20205;-68
2023/06/27 12:30:17;;;;;;;27.60;5.40;;;29.40;47.90;;;;;;5031680;28;20232;-62
2023/06/27 12:32:44;;;;;;;28.57;5.60;;;29.60;48.30;;;;;;5026035;28;20205;-66
2023/06/27 12:35:17;;;;;;;33.90;6.17;;;29.60;47.80;;;;;;5042095;28;20208;-66
2023/06/27 12:37:44;;;;;;;31.43;5.90;;;29.70;47.90;;;;;;5050765;28;20216;-66
2023/06/27 12:40:12;;;;;;;28.40;5.57;;;29.80;48.00;;;;;;5050595;28;20228;-65